Time;durP1;ratioP1;P1;durP2;ratioP2;P2;SDS_P1;SDS_P2;PMS_P1;PMS_P2;Temp;Humidity;BMP_temperature;BMP_pressure;BME280_temperature;BME280_humidity;BME280_pressure;Samples;Min_cycle;Max_cycle;Signal;HPM_P1;HPM_P2
2021/06/13 00:00:19;;;;;;;10.95;8.15;;;589.50;1689.60;;;;;;5074280;28;20452;-59
2021/06/13 00:02:45;;;;;;;11.05;7.53;;;589.50;1715.20;;;;;;5074154;28;20424;-77
2021/06/13 00:05:13;;;;;;;10.43;7.55;;;589.40;1715.20;;;;;;5074194;28;20024;-59
2021/06/13 00:07:39;;;;;;;12.07;7.35;;;589.40;1715.20;;;;;;5074224;28;20021;-76
2021/06/13 00:10:07;;;;;;;13.23;8.18;;;589.40;1715.20;;;;;;5074252;28;20028;-60
2021/06/13 00:12:33;;;;;;;9.20;7.15;;;589.30;1740.80;;;;;;5074122;28;20024;-59
2021/06/13 00:14:59;;;;;;;8.05;6.60;;;589.30;1715.20;;;;;;5074367;28;20024;-59
2021/06/13 00:17:25;;;;;;;9.43;6.65;;;589.30;1715.20;;;;;;5074283;28;20077;-59
2021/06/13 00:19:51;;;;;;;10.23;7.38;;;589.40;1715.20;;;;;;5073992;28;20020;-60
2021/06/13 00:22:16;;;;;;;7.53;6.57;;;589.30;1715.20;;;;;;5074241;28;20465;-60
2021/06/13 00:24:42;;;;;;;7.63;5.60;;;589.30;1715.20;;;;;;5073923;28;20078;-78
2021/06/13 00:27:08;;;;;;;6.22;5.68;;;589.20;1740.80;;;;;;5074125;28;20052;-59
2021/06/13 00:29:34;;;;;;;7.25;5.90;;;589.20;1740.80;;;;;;5073908;28;20016;-60
2021/06/13 00:32:00;;;;;;;7.32;6.10;;;589.20;1740.80;;;;;;5073829;28;20142;-60
2021/06/13 00:34:26;;;;;;;8.02;5.97;;;589.20;1715.20;;;;;;5073799;28;20020;-60
2021/06/13 00:36:52;;;;;;;7.63;5.50;;;589.20;1715.20;;;;;;5074008;28;20435;-78
2021/06/13 00:39:19;;;;;;;9.07;5.28;;;589.20;1715.20;;;;;;5073592;28;20037;-59
2021/06/13 00:41:45;;;;;;;6.97;5.60;;;589.20;1715.20;;;;;;5073983;28;20032;-78
2021/06/13 00:44:11;;;;;;;10.60;6.03;;;589.20;1715.20;;;;;;5073625;28;20385;-59
2021/06/13 00:46:39;;;;;;;6.55;5.38;;;589.20;1715.20;;;;;;5073636;28;20012;-60
2021/06/13 00:49:06;;;;;;;9.85;5.53;;;589.20;1715.20;;;;;;5073879;28;20032;-77
2021/06/13 00:51:31;;;;;;;5.78;5.18;;;589.20;1715.20;;;;;;5073587;28;20101;-60
2021/06/13 00:53:57;;;;;;;7.55;5.35;;;589.20;1715.20;;;;;;5073519;28;20477;-60
2021/06/13 00:56:23;;;;;;;10.57;5.68;;;589.10;1715.20;;;;;;5073762;28;20055;-77
2021/06/13 00:58:50;;;;;;;7.53;5.75;;;589.10;1715.20;;;;;;5073157;28;20102;-78
2021/06/13 01:01:16;;;;;;;6.47;5.65;;;589.20;1689.60;;;;;;5073474;28;20032;-59
2021/06/13 01:03:45;;;;;;;7.60;5.53;;;589.20;1715.20;;;;;;5073715;28;20432;-78
2021/06/13 01:06:13;;;;;;;7.68;5.43;;;589.10;1715.20;;;;;;5073419;28;20420;-59
2021/06/13 01:08:52;;;;;;;8.77;6.03;;;589.10;1715.20;;;;;;5073383;28;20028;-70
2021/06/13 01:11:52;;;;;;;5.75;5.25;;;589.10;1689.60;;;;;;5073512;28;20602;-59
2021/06/13 01:14:38;;;;;;;7.60;5.30;;;589.10;1689.60;;;;;;5065212;28;20493;-60
2021/06/13 01:17:24;;;;;;;5.93;5.43;;;589.10;1689.60;;;;;;5073689;28;20032;-60
2021/06/13 01:20:29;;;;;;;6.90;5.25;;;589.10;1689.60;;;;;;5073255;28;20514;-60
2021/06/13 01:23:32;;;;;;;7.47;5.20;;;589.10;1715.20;;;;;;5072920;28;20033;-78
2021/06/13 01:26:07;;;;;;;11.10;5.32;;;589.10;1715.20;;;;;;5073257;28;20028;-60
2021/06/13 01:28:56;;;;;;;5.95;4.80;;;589.00;1715.20;;;;;;5073245;28;20036;-59
2021/06/13 01:31:32;;;;;;;14.57;5.38;;;589.00;1740.80;;;;;;5073123;28;20035;-60
2021/06/13 01:34:02;;;;;;;12.20;6.07;;;588.90;1792.00;;;;;;5073398;28;20028;-77
2021/06/13 01:36:32;;;;;;;9.98;5.90;;;564.10;1868.80;;;;;;5073347;28;20465;-60
2021/06/13 01:38:58;;;;;;;9.30;5.43;;;563.90;1920.00;;;;;;5073045;28;20502;-60
2021/06/13 01:41:31;;;;;;;8.82;5.97;;;563.90;1920.00;;;;;;5073308;28;20025;-59
2021/06/13 01:43:58;;;;;;;7.43;6.05;;;563.90;1920.00;;;;;;5073370;28;20020;-60
2021/06/13 01:46:27;;;;;;;9.30;6.22;;;563.90;1920.00;;;;;;5073239;28;20029;-60
2021/06/13 01:48:55;;;;;;;8.18;6.50;;;563.90;1920.00;;;;;;5073043;28;20078;-78
2021/06/13 01:51:22;;;;;;;6.90;5.88;;;563.90;1945.60;;;;;;5073108;28;20027;-60
2021/06/13 01:53:50;;;;;;;7.97;6.35;;;563.70;1971.20;;;;;;5073211;28;20028;-60
2021/06/13 01:56:17;;;;;;;7.55;6.15;;;563.70;1945.60;;;;;;5073115;28;20103;-60
2021/06/13 01:58:46;;;;;;;10.45;6.28;;;563.70;1971.20;;;;;;5072801;28;20382;-76
2021/06/13 02:01:14;;;;;;;7.18;6.38;;;563.70;1945.60;;;;;;5072838;28;20111;-59
2021/06/13 02:03:48;;;;;;;7.90;6.07;;;563.70;1971.20;;;;;;5073137;28;20025;-73
2021/06/13 02:06:17;;;;;;;12.63;6.47;;;563.70;1945.60;;;;;;5073057;28;20020;-59
2021/06/13 02:08:44;;;;;;;8.05;6.72;;;563.70;1945.60;;;;;;5072826;28;20056;-74
2021/06/13 02:11:11;;;;;;;8.40;6.18;;;563.80;1920.00;;;;;;5073053;28;20108;-59
2021/06/13 02:13:39;;;;;;;7.82;6.30;;;563.80;1945.60;;;;;;5072721;28;20035;-59
2021/06/13 02:16:08;;;;;;;7.10;6.40;;;563.80;1920.00;;;;;;5072756;28;20024;-73
2021/06/13 02:18:34;;;;;;;6.60;5.80;;;563.90;1945.60;;;;;;5072896;28;20374;-60
2021/06/13 02:21:05;;;;;;;7.93;6.63;;;563.70;1971.20;;;;;;5072964;28;20021;-60
2021/06/13 02:23:32;;;;;;;6.57;5.93;;;563.70;1971.20;;;;;;5073266;28;20100;-60
2021/06/13 02:25:58;;;;;;;7.30;6.60;;;563.60;1996.80;;;;;;5074027;28;20070;-60
2021/06/13 02:28:27;;;;;;;7.90;6.65;;;563.60;1996.80;;;;;;5076446;28;20035;-60
2021/06/13 02:30:54;;;;;;;10.18;6.80;;;563.60;1971.20;;;;;;5076160;28;20013;-59
2021/06/13 02:33:22;;;;;;;10.35;6.32;;;563.60;1996.80;;;;;;5076074;28;20082;-75
2021/06/13 02:35:52;;;;;;;7.75;6.40;;;563.50;1996.80;;;;;;5076035;28;20469;-60
2021/06/13 02:38:19;;;;;;;6.95;5.63;;;563.60;1996.80;;;;;;5075893;28;20047;-60
2021/06/13 02:40:47;;;;;;;8.43;6.43;;;563.60;1971.20;;;;;;5075976;28;20051;-61
2021/06/13 02:43:13;;;;;;;8.45;5.93;;;563.60;1971.20;;;;;;5075923;28;20025;-60
2021/06/13 02:45:39;;;;;;;7.45;6.75;;;563.60;1996.80;;;;;;5075856;28;20074;-74
2021/06/13 02:48:07;;;;;;;7.47;6.70;;;563.60;2022.40;;;;;;5075832;28;20090;-67
2021/06/13 02:50:33;;;;;;;8.00;6.53;;;563.50;2022.40;;;;;;5075788;28;20035;-60
2021/06/13 02:53:14;;;;;;;7.35;6.63;;;563.60;2022.40;;;;;;5076052;28;20052;-60
2021/06/13 02:55:57;;;;;;;7.00;6.25;;;563.60;2022.40;;;;;;5075999;28;20028;-74
2021/06/13 02:58:47;;;;;;;6.97;6.38;;;563.60;2048.00;;;;;;5075642;28;20520;-60
2021/06/13 03:01:17;;;;;;;7.65;6.95;;;563.50;2048.00;;;;;;5075535;28;20028;-59
2021/06/13 03:03:44;;;;;;;7.40;6.07;;;563.50;2073.60;;;;;;5075828;28;20025;-76
2021/06/13 03:06:21;;;;;;;12.75;6.80;;;563.50;2022.40;;;;;;5076038;28;20021;-60
2021/06/13 03:08:48;;;;;;;11.07;6.53;;;563.50;2048.00;;;;;;5075786;28;20028;-61
2021/06/13 03:11:15;;;;;;;9.35;6.43;;;563.50;2048.00;;;;;;5075706;28;20020;-60
2021/06/13 03:13:42;;;;;;;8.13;6.40;;;563.50;2073.60;;;;;;5075638;28;20094;-76
2021/06/13 03:16:09;;;;;;;6.93;6.20;;;563.40;2073.60;;;;;;5075347;28;20017;-59
2021/06/13 03:18:36;;;;;;;9.68;6.50;;;563.40;2099.20;;;;;;5075709;28;20036;-59
2021/06/13 03:21:05;;;;;;;6.95;6.25;;;563.40;2099.20;;;;;;5075470;28;20439;-60
2021/06/13 03:23:33;;;;;;;8.07;6.20;;;563.20;2099.20;;;;;;5075133;28;20040;-60
2021/06/13 03:26:02;;;;;;;10.00;7.07;;;563.20;2099.20;;;;;;5075054;28;20032;-60
2021/06/13 03:28:31;;;;;;;7.65;6.85;;;563.20;2073.60;;;;;;5075322;28;20063;-60
2021/06/13 03:30:57;;;;;;;7.75;6.30;;;563.30;2099.20;;;;;;5075281;28;20511;-60
2021/06/13 03:33:24;;;;;;;6.93;5.43;;;563.30;2073.60;;;;;;5075260;28;20067;-59
2021/06/13 03:35:51;;;;;;;6.38;5.78;;;563.20;2099.20;;;;;;5074864;28;20028;-60
2021/06/13 03:38:19;;;;;;;8.07;5.55;;;563.20;2099.20;;;;;;5074345;28;20043;-59
2021/06/13 03:40:46;;;;;;;7.55;6.05;;;563.20;2099.20;;;;;;5074978;28;20032;-61
2021/06/13 03:43:12;;;;;;;6.93;6.28;;;563.20;2099.20;;;;;;5074709;28;20035;-60
2021/06/13 03:45:38;;;;;;;7.55;6.38;;;563.20;2099.20;;;;;;5075011;28;20016;-71
2021/06/13 03:48:05;;;;;;;8.00;6.07;;;563.20;2073.60;;;;;;5075122;28;20017;-60
2021/06/13 03:50:33;;;;;;;6.53;5.93;;;563.20;2073.60;;;;;;5074595;28;20489;-60
2021/06/13 03:53:01;;;;;;;5.82;5.30;;;563.20;2099.20;;;;;;5074489;28;20025;-71
2021/06/13 03:55:28;;;;;;;6.68;6.05;;;563.20;2099.20;;;;;;5074409;28;20478;-60
2021/06/13 03:57:56;;;;;;;6.20;5.57;;;563.20;2073.60;;;;;;5074366;28;20070;-74
2021/06/13 04:00:24;;;;;;;6.18;5.57;;;563.20;2099.20;;;;;;5074595;28;20048;-60
2021/06/13 04:02:50;;;;;;;7.40;6.15;;;538.50;2073.60;;;;;;5074358;28;20020;-75
2021/06/13 04:05:19;;;;;;;6.75;6.07;;;538.50;2073.60;;;;;;5074545;28;20546;-60
2021/06/13 04:07:45;;;;;;;8.38;5.90;;;538.50;2099.20;;;;;;5074451;28;20027;-78
2021/06/13 04:10:13;;;;;;;7.15;5.57;;;538.50;2073.60;;;;;;5074554;28;20016;-60
2021/06/13 04:12:40;;;;;;;7.13;6.15;;;538.50;2073.60;;;;;;5074113;28;20025;-75
2021/06/13 04:15:08;;;;;;;6.78;6.00;;;563.20;2073.60;;;;;;5074056;28;20060;-60
2021/06/13 04:17:34;;;;;;;6.72;6.00;;;563.20;2073.60;;;;;;5074250;28;20039;-59
2021/06/13 04:20:05;;;;;;;9.38;6.18;;;563.20;2099.20;;;;;;5074077;28;20023;-60
2021/06/13 04:22:31;;;;;;;6.15;5.55;;;538.50;2073.60;;;;;;5074542;28;20124;-60
2021/06/13 04:24:59;;;;;;;7.28;5.57;;;538.50;2073.60;;;;;;5074537;28;20016;-60
2021/06/13 04:27:27;;;;;;;6.72;5.88;;;538.40;2099.20;;;;;;5074077;28;20074;-60
2021/06/13 04:29:59;;;;;;;6.60;5.90;;;538.40;2099.20;;;;;;5074123;28;20450;-60
2021/06/13 04:32:25;;;;;;;6.82;5.80;;;538.40;2099.20;;;;;;5074191;28;20030;-74
2021/06/13 04:34:51;;;;;;;7.07;5.97;;;538.40;2099.20;;;;;;5074306;28;20022;-60
2021/06/13 04:37:17;;;;;;;8.98;5.85;;;538.30;2099.20;;;;;;5073820;28;20107;-60
2021/06/13 04:39:43;;;;;;;7.68;6.15;;;538.30;2099.20;;;;;;5073597;28;20040;-61
2021/06/13 04:42:10;;;;;;;6.00;5.40;;;538.20;2099.20;;;;;;5073924;28;20065;-74
2021/06/13 04:44:37;;;;;;;6.30;5.70;;;538.20;2099.20;;;;;;5073674;28;20032;-60
2021/06/13 04:47:05;;;;;;;7.75;6.18;;;538.20;2099.20;;;;;;5073925;28;20103;-59
2021/06/13 04:49:31;;;;;;;7.47;5.60;;;538.20;2099.20;;;;;;5072821;28;20024;-60
2021/06/13 04:51:59;;;;;;;7.03;6.22;;;538.20;2099.20;;;;;;5073603;28;20043;-60
2021/06/13 04:54:33;;;;;;;6.68;6.00;;;538.20;2099.20;;;;;;5073867;28;20396;-60
2021/06/13 04:57:26;;;;;;;6.25;5.68;;;538.20;2099.20;;;;;;5073846;28;20533;-59
2021/06/13 04:59:52;;;;;;;6.70;5.63;;;538.10;2099.20;;;;;;5072316;28;20059;-60
2021/06/13 05:02:18;;;;;;;7.18;6.40;;;538.10;2099.20;;;;;;5072983;28;20393;-59
2021/06/13 05:04:44;;;;;;;5.78;5.00;;;538.10;2099.20;;;;;;5073688;28;20063;-76
2021/06/13 05:07:10;;;;;;;5.82;5.22;;;538.10;2073.60;;;;;;5073400;28;20463;-60
2021/06/13 05:09:36;;;;;;;6.03;5.30;;;538.10;2099.20;;;;;;5073682;28;20056;-60
2021/06/13 05:12:02;;;;;;;7.55;4.70;;;538.00;2073.60;;;;;;5073324;28;20071;-59
2021/06/13 05:14:28;;;;;;;5.53;4.85;;;538.10;2073.60;;;;;;5073559;28;20044;-59
2021/06/13 05:16:54;;;;;;;5.55;4.57;;;538.00;2073.60;;;;;;5073283;28;20429;-59
2021/06/13 05:19:20;;;;;;;4.88;3.97;;;538.00;2048.00;;;;;;5073504;28;20090;-60
2021/06/13 05:21:46;;;;;;;9.93;5.00;;;538.00;2022.40;;;;;;5073494;28;20370;-60
2021/06/13 05:24:12;;;;;;;5.80;4.13;;;537.90;2022.40;;;;;;5073229;28;20385;-59
2021/06/13 05:26:38;;;;;;;6.38;4.15;;;538.00;2022.40;;;;;;5073785;28;20020;-59
2021/06/13 05:29:05;;;;;;;4.70;4.30;;;538.10;1996.80;;;;;;5073165;28;20086;-60
2021/06/13 05:31:31;;;;;;;7.90;4.63;;;538.10;1996.80;;;;;;5073185;28;20024;-74
2021/06/13 05:33:57;;;;;;;6.20;4.38;;;538.10;1996.80;;;;;;5073379;28;20021;-60
2021/06/13 05:36:23;;;;;;;5.75;4.75;;;538.10;1996.80;;;;;;5073144;28;20075;-75
2021/06/13 05:38:49;;;;;;;5.43;4.05;;;538.10;1996.80;;;;;;5073238;28;20120;-76
2021/06/13 05:41:15;;;;;;;5.57;3.50;;;538.10;1945.60;;;;;;5073038;28;20354;-76
2021/06/13 05:43:42;;;;;;;7.63;3.75;;;538.00;1945.60;;;;;;5073080;28;20035;-76
2021/06/13 05:46:08;;;;;;;5.43;3.22;;;538.10;1920.00;;;;;;5073037;28;20049;-76
2021/06/13 05:48:34;;;;;;;6.25;3.10;;;538.00;1894.40;;;;;;5073078;28;20512;-76
2021/06/13 05:51:01;;;;;;;4.85;2.45;;;538.00;1868.80;;;;;;5073004;28;20442;-75
2021/06/13 05:53:27;;;;;;;4.47;2.88;;;538.00;1868.80;;;;;;5073263;28;20024;-76
2021/06/13 05:55:53;;;;;;;6.45;2.88;;;538.00;1843.20;;;;;;5072980;28;20021;-60
2021/06/13 05:58:19;;;;;;;4.35;3.10;;;537.90;1792.00;;;;;;5072758;28;20098;-60
2021/06/13 06:00:46;;;;;;;5.80;3.00;;;537.80;1817.60;;;;;;5075656;28;20025;-74
2021/06/13 06:03:12;;;;;;;6.50;2.60;;;537.80;1766.40;;;;;;5076684;28;20040;-76
2021/06/13 06:05:38;;;;;;;4.97;2.50;;;537.70;1792.00;;;;;;5077135;28;20013;-72
2021/06/13 06:08:04;;;;;;;3.92;2.20;;;537.70;1792.00;;;;;;5076523;28;20031;-74
2021/06/13 06:10:32;;;;;;;4.07;2.40;;;537.60;1792.00;;;;;;5076715;28;20021;-75
2021/06/13 06:13:00;;;;;;;5.03;2.50;;;537.60;1792.00;;;;;;5076437;28;20040;-73
2021/06/13 06:15:27;;;;;;;7.63;2.33;;;537.60;1766.40;;;;;;5076398;28;20036;-75
2021/06/13 06:17:54;;;;;;;8.57;3.10;;;537.60;1817.60;;;;;;5076588;28;20032;-71
2021/06/13 06:20:23;;;;;;;5.03;2.58;;;537.60;1817.60;;;;;;5077224;28;20036;-75
2021/06/13 06:22:50;;;;;;;6.20;2.60;;;537.70;1817.60;;;;;;5076238;28;20495;-75
2021/06/13 06:25:16;;;;;;;6.82;2.92;;;537.70;1817.60;;;;;;5076263;28;20032;-73
2021/06/13 06:27:43;;;;;;;5.30;2.45;;;537.70;1817.60;;;;;;5076116;28;20037;-74
2021/06/13 06:30:11;;;;;;;8.77;2.50;;;537.70;1817.60;;;;;;5076116;28;20029;-75
2021/06/13 06:32:38;;;;;;;5.10;2.50;;;537.80;1817.60;;;;;;5076400;28;20078;-74
2021/06/13 06:35:05;;;;;;;4.72;2.65;;;537.70;1792.00;;;;;;5076077;28;20055;-75
2021/06/13 06:37:31;;;;;;;3.20;2.38;;;537.70;1817.60;;;;;;5075970;28;20028;-74
2021/06/13 06:39:57;;;;;;;6.18;2.95;;;537.60;1817.60;;;;;;5076209;28;20025;-72
2021/06/13 06:42:23;;;;;;;7.68;2.70;;;537.60;1817.60;;;;;;5075931;28;20025;-75
2021/06/13 06:44:49;;;;;;;9.98;2.45;;;537.60;1817.60;;;;;;5075926;28;20024;-74
2021/06/13 06:47:15;;;;;;;11.52;2.92;;;537.70;1843.20;;;;;;5075872;28;20078;-74
2021/06/13 06:49:41;;;;;;;9.93;2.80;;;537.70;1843.20;;;;;;5076080;28;20025;-74
2021/06/13 06:52:07;;;;;;;4.97;2.67;;;537.80;1817.60;;;;;;5075724;28;20101;-74
2021/06/13 06:54:33;;;;;;;16.38;2.97;;;538.00;1817.60;;;;;;5075725;28;20541;-74
2021/06/13 06:56:59;;;;;;;8.38;2.88;;;537.90;1766.40;;;;;;5075255;28;20177;-61
2021/06/13 06:59:25;;;;;;;3.95;2.20;;;538.10;1766.40;;;;;;5075002;28;20162;-75
2021/06/13 07:01:51;;;;;;;4.75;2.38;;;538.10;1766.40;;;;;;5075757;28;20028;-73
2021/06/13 07:04:17;;;;;;;13.38;3.08;;;538.20;1740.80;;;;;;5075334;28;20035;-74
2021/06/13 07:06:43;;;;;;;6.38;2.20;;;538.30;1740.80;;;;;;5075798;28;20099;-65
2021/06/13 07:09:09;;;;;;;7.32;2.25;;;538.20;1664.00;;;;;;5076076;28;20504;-74
2021/06/13 07:11:35;;;;;;;11.75;2.80;;;538.40;1689.60;;;;;;5074550;28;20025;-77
2021/06/13 07:14:01;;;;;;;6.50;2.03;;;538.40;1689.60;;;;;;5073642;28;20123;-70
2021/06/13 07:16:27;;;;;;;3.92;1.75;;;538.40;1587.20;;;;;;5075548;28;20031;-78
2021/06/13 07:18:52;;;;;;;9.02;2.42;;;538.40;1612.80;;;;;;5074910;28;20080;-68
2021/06/13 07:21:18;;;;;;;9.57;1.70;;;538.40;1587.20;;;;;;5075262;28;20469;-75
2021/06/13 07:23:44;;;;;;;4.57;1.77;;;538.40;1510.40;;;;;;5075188;28;20418;-76
2021/06/13 07:26:10;;;;;;;3.38;1.85;;;538.50;1510.40;;;;;;5075130;28;20020;-71
2021/06/13 07:28:36;;;;;;;10.07;1.80;;;538.50;1510.40;;;;;;5075020;28;20077;-66
2021/06/13 07:31:03;;;;;;;6.20;1.83;;;563.20;1536.00;;;;;;5075012;28;20033;-74
2021/06/13 07:33:29;;;;;;;12.13;1.90;;;563.30;1510.40;;;;;;5074984;28;20025;-67
2021/06/13 07:35:56;;;;;;;5.57;2.00;;;563.50;1510.40;;;;;;5074988;28;20032;-69
2021/06/13 07:38:22;;;;;;;5.40;1.90;;;563.60;1510.40;;;;;;5074841;28;20054;-72
2021/06/13 07:40:49;;;;;;;9.63;2.00;;;563.70;1459.20;;;;;;5074840;28;20048;-66
2021/06/13 07:43:15;;;;;;;6.15;1.88;;;563.80;1408.00;;;;;;5073589;28;20089;-71
2021/06/13 07:45:42;;;;;;;4.43;1.70;;;563.80;1459.20;;;;;;5074770;28;20021;-70
2021/06/13 07:48:10;;;;;;;6.75;1.80;;;563.90;1484.80;;;;;;5074616;28;20029;-72
2021/06/13 07:50:37;;;;;;;5.68;1.77;;;564.00;1408.00;;;;;;5074625;28;20043;-70
2021/06/13 07:53:04;;;;;;;5.07;1.80;;;564.00;1382.40;;;;;;5074829;28;20448;-70
2021/06/13 07:55:31;;;;;;;4.75;1.67;;;564.00;1433.60;;;;;;5074416;28;20024;-64
2021/06/13 07:57:57;;;;;;;5.00;1.63;;;564.00;1408.00;;;;;;5074280;28;20469;-71
2021/06/13 08:00:24;;;;;;;6.15;1.80;;;564.10;1356.80;;;;;;5074205;28;20081;-71
2021/06/13 08:02:52;;;;;;;10.77;2.30;;;564.10;1382.40;;;;;;5074355;28;20025;-72
2021/06/13 08:05:28;;;;;;;4.82;1.80;;;564.10;1382.40;;;;;;5074881;28;20100;-71
2021/06/13 08:07:59;;;;;;;5.22;1.83;;;588.80;1382.40;;;;;;5074312;28;20024;-72
2021/06/13 08:10:27;;;;;;;8.35;1.60;;;588.80;1356.80;;;;;;5074892;28;20016;-70
2021/06/13 08:12:54;;;;;;;4.55;1.70;;;588.90;1305.60;;;;;;5072965;28;20111;-72
2021/06/13 08:15:21;;;;;;;7.32;1.73;;;588.90;1280.00;;;;;;5074292;28;20481;-71
2021/06/13 08:17:48;;;;;;;7.93;1.88;;;588.90;1254.40;;;;;;5074295;28;20531;-70
2021/06/13 08:20:15;;;;;;;3.25;1.50;;;589.00;1203.20;;;;;;5074060;28;20032;-72
2021/06/13 08:22:42;;;;;;;3.58;1.40;;;588.90;1228.80;;;;;;5073886;28;20021;-72
2021/06/13 08:25:10;;;;;;;7.28;1.83;;;589.00;1228.80;;;;;;5073985;28;20024;-72
2021/06/13 08:27:36;;;;;;;4.85;2.88;;;589.00;1203.20;;;;;;5073946;28;20020;-67
2021/06/13 08:30:04;;;;;;;6.72;1.38;;;589.00;1203.20;;;;;;5073842;28;20029;-71
2021/06/13 08:32:30;;;;;;;7.78;1.88;;;589.10;1203.20;;;;;;5073818;28;20031;-81
2021/06/13 08:34:57;;;;;;;6.15;1.40;;;589.20;1228.80;;;;;;5073710;28;20056;-79
2021/06/13 08:37:23;;;;;;;7.65;3.25;;;589.10;1203.20;;;;;;5072697;28;20024;-76
2021/06/13 08:39:50;;;;;;;12.02;7.85;;;589.20;1203.20;;;;;;5073572;28;20542;-75
2021/06/13 08:42:17;;;;;;;13.45;1.88;;;589.30;1177.60;;;;;;5073545;28;20028;-69
2021/06/13 08:44:43;;;;;;;8.75;2.83;;;589.30;1126.40;;;;;;5073480;28;20040;-82
2021/06/13 08:47:11;;;;;;;5.03;1.70;;;589.40;1126.40;;;;;;5073885;28;20032;-82
2021/06/13 08:49:37;;;;;;;7.40;2.63;;;589.40;1126.40;;;;;;5073859;28;20108;-80
2021/06/13 08:52:04;;;;;;;4.28;1.25;;;589.40;1152.00;;;;;;5072123;28;20489;-73
2021/06/13 08:54:30;;;;;;;7.47;1.50;;;589.50;1100.80;;;;;;5073376;28;20025;-66
2021/06/13 08:56:56;;;;;;;10.75;1.38;;;589.50;1075.20;;;;;;5073183;28;20043;-72
2021/06/13 08:59:22;;;;;;;4.40;1.35;;;589.50;1024.00;;;;;;5072147;28;20056;-78
2021/06/13 09:01:48;;;;;;;10.13;1.60;;;589.50;1075.20;;;;;;5070151;28;20020;-74
2021/06/13 09:04:14;;;;;;;4.68;1.10;;;589.70;1075.20;;;;;;5072239;28;20027;-79
2021/06/13 09:06:40;;;;;;;4.93;1.50;;;589.70;1075.20;;;;;;5073130;28;20102;-72
2021/06/13 09:09:35;;;;;;;4.05;0.93;;;614.40;1049.60;;;;;;5055292;28;20508;-78
2021/06/13 09:12:07;;;;;;;11.93;3.17;;;589.60;1049.60;;;;;;5048245;28;20530;-66
2021/06/13 09:14:55;;;;;;;7.05;1.40;;;589.50;1049.60;;;;;;5064798;28;20028;-75
2021/06/13 09:17:28;;;;;;;6.28;1.10;;;589.50;1024.00;;;;;;5068436;28;20394;-76
2021/06/13 09:20:20;;;;;;;14.18;1.77;;;589.60;998.40;;;;;;5069641;28;20198;-75
2021/06/13 09:23:09;;;;;;;3.08;1.35;;;589.70;1049.60;;;;;;5069422;28;20080;-61
2021/06/13 09:25:40;;;;;;;4.72;1.50;;;589.70;1049.60;;;;;;5069273;28;20093;-64
2021/06/13 09:28:20;;;;;;;7.03;1.73;;;589.70;1049.60;;;;;;5059016;28;20036;-72
2021/06/13 09:30:51;;;;;;;6.45;1.75;;;589.50;1049.60;;;;;;5045195;28;20295;-77
2021/06/13 09:33:27;;;;;;;7.68;1.77;;;589.70;1075.20;;;;;;5048848;28;20140;-71
2021/06/13 09:35:55;;;;;;;9.40;1.90;;;589.70;1100.80;;;;;;5049871;28;20087;-71
2021/06/13 09:38:36;;;;;;;3.72;1.40;;;614.40;1100.80;;;;;;5050760;28;20037;-61
2021/06/13 09:41:10;;;;;;;6.85;1.83;;;589.70;1100.80;;;;;;5052552;28;20039;-73
2021/06/13 09:43:47;;;;;;;8.13;2.25;;;589.70;1075.20;;;;;;5052797;28;20393;-78
2021/06/13 09:46:34;;;;;;;10.00;2.10;;;589.70;1126.40;;;;;;5053417;28;20644;-77
2021/06/13 09:49:07;;;;;;;6.97;2.22;;;589.70;1075.20;;;;;;5069239;28;20112;-77
2021/06/13 09:51:40;;;;;;;4.05;1.65;;;614.40;1126.40;;;;;;5075780;28;20074;-76
2021/06/13 09:54:09;;;;;;;12.50;3.67;;;614.40;1100.80;;;;;;5074221;28;20074;-77
2021/06/13 09:56:39;;;;;;;7.07;2.53;;;614.40;1100.80;;;;;;5070425;28;20027;-80
2021/06/13 09:59:17;;;;;;;15.60;2.70;;;614.40;1100.80;;;;;;5074805;28;20090;-77
2021/06/13 10:01:49;;;;;;;8.07;1.98;;;614.40;1100.80;;;;;;5075320;28;20041;-76
2021/06/13 10:04:18;;;;;;;8.07;2.78;;;589.70;1100.80;;;;;;5071891;28;20039;-72
2021/06/13 10:06:46;;;;;;;5.45;2.17;;;614.40;1100.80;;;;;;5074759;28;20100;-70
2021/06/13 10:09:13;;;;;;;14.80;6.78;;;614.40;1100.80;;;;;;5072899;28;20025;-79
2021/06/13 10:11:40;;;;;;;11.00;2.38;;;614.40;1126.40;;;;;;5074668;28;20420;-63
2021/06/13 10:14:10;;;;;;;25.35;15.25;;;614.40;1100.80;;;;;;5074698;28;20087;-77
2021/06/13 10:16:49;;;;;;;8.95;2.00;;;614.50;1075.20;;;;;;5074860;28;20029;-77
2021/06/13 10:19:18;;;;;;;15.95;5.82;;;614.50;1049.60;;;;;;5074174;28;20028;-77
2021/06/13 10:21:51;;;;;;;14.50;3.15;;;614.50;1024.00;;;;;;5074527;28;20035;-78
2021/06/13 10:24:22;;;;;;;10.77;1.97;;;614.40;1049.60;;;;;;5074442;28;20024;-70
2021/06/13 10:26:52;;;;;;;6.78;1.38;;;614.50;1024.00;;;;;;5074709;28;20265;-74
2021/06/13 10:29:19;;;;;;;8.93;1.55;;;614.50;1049.60;;;;;;5075509;28;20054;-74
2021/06/13 10:31:48;;;;;;;3.10;1.20;;;614.50;1024.00;;;;;;5074728;28;20021;-75
2021/06/13 10:34:15;;;;;;;3.30;1.40;;;614.50;998.40;;;;;;5075936;28;20369;-76
2021/06/13 10:36:42;;;;;;;4.38;1.75;;;614.50;998.40;;;;;;5075780;28;20021;-72
2021/06/13 10:39:14;;;;;;;7.47;1.33;;;614.50;1024.00;;;;;;5075716;28;20051;-76
2021/06/13 10:41:41;;;;;;;6.68;1.40;;;614.50;1049.60;;;;;;5075885;28;20028;-75
2021/06/13 10:44:10;;;;;;;5.55;1.65;;;614.50;1024.00;;;;;;5075644;28;20028;-76
2021/06/13 10:46:41;;;;;;;3.05;1.50;;;614.50;1075.20;;;;;;5074345;28;20473;-74
2021/06/13 10:49:33;;;;;;;5.43;1.55;;;614.50;1049.60;;;;;;5075916;28;20484;-75
2021/06/13 10:52:15;;;;;;;8.00;1.60;;;614.50;1075.20;;;;;;5075470;28;20532;-75
2021/06/13 10:54:56;;;;;;;3.58;1.67;;;614.50;1049.60;;;;;;5075805;28;20025;-75
2021/06/13 10:57:22;;;;;;;3.97;1.27;;;614.50;1049.60;;;;;;5075711;28;20141;-72
2021/06/13 10:59:52;;;;;;;6.38;1.55;;;614.50;1049.60;;;;;;5075093;28;20048;-74
2021/06/13 11:02:23;;;;;;;4.75;1.20;;;614.60;1024.00;;;;;;5075276;28;20036;-74
2021/06/13 11:04:56;;;;;;;5.78;1.50;;;614.70;1024.00;;;;;;5074867;28;20393;-74
2021/06/13 11:07:43;;;;;;;2.78;1.27;;;614.70;1024.00;;;;;;5071182;28;20017;-75
2021/06/13 11:10:17;;;;;;;4.05;1.40;;;614.80;1024.00;;;;;;5056662;28;20489;-77
2021/06/13 11:13:01;;;;;;;4.00;1.13;;;614.60;998.40;;;;;;5075126;28;20025;-76
2021/06/13 11:15:35;;;;;;;9.85;2.10;;;614.50;998.40;;;;;;5075126;28;20032;-72
2021/06/13 11:18:22;;;;;;;7.85;4.05;;;614.50;1024.00;;;;;;5075339;28;20514;-62
2021/06/13 11:20:52;;;;;;;10.05;3.10;;;614.60;1049.60;;;;;;5075350;28;20073;-62
2021/06/13 11:23:24;;;;;;;4.60;2.15;;;614.70;1024.00;;;;;;5075356;28;20024;-67
2021/06/13 11:25:51;;;;;;;4.97;1.80;;;614.80;1024.00;;;;;;5074932;28;20107;-73
2021/06/13 11:28:27;;;;;;;3.85;1.55;;;614.90;1049.60;;;;;;5074116;28;20027;-73
2021/06/13 11:31:16;;;;;;;7.85;1.40;;;614.90;998.40;;;;;;5073371;28;20028;-72
2021/06/13 11:33:44;;;;;;;5.47;1.20;;;614.90;1024.00;;;;;;5071760;28;20095;-74
2021/06/13 11:36:22;;;;;;;16.88;1.80;;;614.90;1024.00;;;;;;5072804;28;20028;-65
2021/06/13 11:38:51;;;;;;;7.25;1.35;;;615.00;998.40;;;;;;5072721;28;20036;-76
2021/06/13 11:41:47;;;;;;;12.32;1.50;;;615.00;1024.00;;;;;;5072829;28;20029;-73
2021/06/13 11:44:22;;;;;;;12.73;1.75;;;615.00;947.20;;;;;;5072185;28;20033;-75
2021/06/13 11:46:51;;;;;;;4.90;1.60;;;615.00;972.80;;;;;;5074442;28;20028;-70
2021/06/13 11:49:21;;;;;;;5.82;1.42;;;615.00;972.80;;;;;;5074536;28;20108;-76
2021/06/13 11:51:53;;;;;;;6.32;1.30;;;615.00;998.40;;;;;;5074419;28;20036;-69
2021/06/13 11:54:33;;;;;;;5.03;1.60;;;615.00;1024.00;;;;;;5074370;28;20115;-77
2021/06/13 11:57:06;;;;;;;7.85;1.60;;;615.00;998.40;;;;;;5073918;28;20024;-77
2021/06/13 11:59:33;;;;;;;6.35;1.30;;;615.10;1024.00;;;;;;5074041;28;20048;-66
2021/06/13 12:02:01;;;;;;;3.95;1.88;;;615.00;998.40;;;;;;5074501;28;20029;-77
2021/06/13 12:04:29;;;;;;;8.98;1.60;;;615.00;998.40;;;;;;5074492;28;20032;-76
2021/06/13 12:07:02;;;;;;;16.05;1.80;;;615.00;972.80;;;;;;5074467;28;20424;-74
2021/06/13 12:09:31;;;;;;;7.38;1.92;;;615.00;972.80;;;;;;5074030;28;20051;-77
2021/06/13 12:12:00;;;;;;;10.43;1.50;;;615.10;998.40;;;;;;5058919;28;20063;-75
2021/06/13 12:14:36;;;;;;;9.23;1.52;;;615.20;998.40;;;;;;5074233;28;20365;-76
2021/06/13 12:17:10;;;;;;;6.25;1.83;;;615.30;1024.00;;;;;;5073848;28;20048;-66
2021/06/13 12:19:36;;;;;;;13.55;1.92;;;615.30;998.40;;;;;;5073856;28;20515;-74
2021/06/13 12:22:21;;;;;;;4.57;2.03;;;640.00;1024.00;;;;;;5073481;28;20133;-64
2021/06/13 12:27:25;;;;;;;9.18;2.38;;;615.30;972.80;;;;;;5073425;28;20016;-75
2021/06/13 12:29:53;;;;;;;9.73;2.38;;;615.30;947.20;;;;;;5073695;28;20020;-76